createdAt,value
2023-03-16T11:07:50.004Z,10.26
2023-03-16T11:10:46.037Z,10.16
2023-03-16T11:13:21.468Z,10.25
2023-03-16T11:15:57.463Z,10.26
2023-03-16T11:18:36.811Z,10.33
2023-03-16T11:21:13.111Z,10.17
2023-03-16T11:23:48.427Z,10.29
2023-03-16T11:26:32.554Z,10.09
2023-03-16T11:29:09.516Z,9.53
2023-03-16T11:31:42.714Z,9.28
2023-03-16T11:34:18.823Z,9.62
2023-03-16T11:37:05.428Z,9.61
2023-03-16T11:40:34.160Z,9.95
2023-03-16T11:43:22.833Z,10.44
2023-03-16T11:46:09.050Z,10.45
2023-03-16T11:48:44.870Z,10.68
2023-03-16T11:51:36.864Z,10.32
2023-03-16T11:54:33.593Z,10.39
2023-03-16T11:57:03.803Z,10.08
2023-03-16T11:59:37.636Z,10.17
2023-03-16T12:02:14.168Z,10.36
2023-03-16T12:04:50.953Z,10.51
2023-03-16T12:07:36.584Z,10.21
2023-03-16T12:10:20.285Z,9.59
2023-03-16T12:13:33.734Z,9.63
2023-03-16T12:16:15.261Z,9.78
2023-03-16T12:18:54.658Z,9.89
2023-03-16T12:21:28.211Z,9.76
2023-03-16T12:24:00.423Z,9.83
2023-03-16T12:26:32.586Z,10.01
2023-03-16T12:29:08.553Z,10.22
2023-03-16T12:31:55.919Z,10.21
2023-03-16T12:34:34.529Z,10.27
2023-03-16T12:37:15.059Z,10.14
2023-03-16T12:40:15.756Z,10.20
2023-03-16T12:42:55.354Z,10.03
2023-03-16T12:45:48.487Z,9.99
2023-03-16T12:48:25.132Z,10.53
2023-03-16T12:50:58.612Z,10.51
2023-03-16T12:53:39.271Z,10.33
2023-03-16T12:56:10.089Z,10.59
2023-03-16T12:58:46.076Z,10.28
2023-03-16T13:01:15.409Z,10.35
2023-03-16T13:03:46.778Z,10.00
2023-03-16T13:06:20.576Z,10.20
2023-03-16T13:08:54.943Z,10.11
2023-03-16T13:11:22.203Z,10.08
2023-03-16T13:14:12.954Z,9.81
2023-03-16T13:16:41.241Z,9.76
2023-03-16T13:19:29.576Z,9.69
2023-03-16T13:22:20.958Z,10.00
2023-03-16T13:24:53.051Z,10.01
2023-03-16T13:27:28.434Z,9.91
2023-03-16T13:29:59.110Z,10.03
2023-03-16T13:32:32.064Z,9.85
2023-03-16T13:35:02.277Z,9.86
2023-03-16T13:37:30.141Z,9.95
2023-03-16T13:40:00.054Z,9.75
2023-03-16T13:42:32.609Z,9.78
2023-03-16T13:45:11.388Z,9.95
2023-03-16T13:47:43.468Z,9.89
2023-03-16T13:50:13.699Z,9.84
2023-03-16T13:52:43.248Z,9.94
2023-03-16T13:55:17.441Z,10.04
2023-03-16T13:57:46.485Z,9.82
2023-03-16T14:00:18.116Z,9.51
2023-03-16T14:02:48.843Z,9.43
2023-03-16T14:05:24.463Z,9.70
2023-03-16T14:07:52.930Z,9.78
2023-03-16T14:10:21.802Z,9.88
2023-03-16T14:13:07.068Z,9.86
2023-03-16T14:15:37.366Z,9.95
2023-03-16T14:18:21.370Z,9.82
2023-03-16T14:20:56.322Z,9.60
2023-03-16T14:23:31.573Z,9.51
2023-03-16T14:25:59.382Z,9.41
2023-03-16T14:28:32.290Z,9.57
2023-03-16T14:31:13.421Z,9.53
2023-03-16T14:33:46.050Z,9.61
2023-03-16T14:36:18.709Z,9.77
2023-03-16T14:38:54.390Z,9.69
2023-03-16T14:41:23.654Z,9.75
2023-03-16T14:44:04.286Z,9.82
2023-03-16T14:46:42.430Z,9.55
2023-03-16T14:49:27.945Z,9.66
2023-03-16T14:52:00.445Z,9.58
2023-03-16T14:54:28.688Z,9.52
2023-03-16T14:57:01.841Z,9.47
2023-03-16T14:59:29.176Z,9.50
2023-03-16T15:01:58.068Z,9.42
2023-03-16T15:04:31.297Z,9.41
2023-03-16T15:06:59.055Z,9.53
2023-03-16T15:09:46.056Z,9.45
2023-03-16T15:12:19.812Z,9.20
2023-03-16T15:15:06.919Z,9.22
2023-03-16T15:17:34.366Z,9.07
2023-03-16T15:20:01.535Z,8.87
2023-03-16T15:22:35.603Z,9.02
2023-03-16T15:25:38.568Z,8.75
2023-03-16T15:28:25.747Z,8.75
2023-03-16T15:30:58.059Z,8.87
2023-03-16T15:33:26.594Z,8.98
2023-03-16T15:35:57.130Z,8.84
2023-03-16T15:38:31.390Z,8.86
2023-03-16T15:40:59.672Z,8.96
2023-03-16T15:43:29.293Z,9.01
2023-03-16T15:45:57.583Z,9.00
2023-03-16T15:48:25.471Z,8.93
2023-03-16T15:50:54.530Z,8.87
2023-03-16T15:53:38.519Z,8.61
2023-03-16T15:56:17.427Z,8.58
2023-03-16T15:58:46.604Z,8.48
2023-03-16T16:01:22.766Z,8.39
2023-03-16T16:03:54.117Z,8.37
2023-03-16T16:06:22.201Z,8.26
2023-03-16T16:08:49.837Z,8.15
2023-03-16T16:11:22.372Z,8.11
2023-03-16T16:13:50.468Z,8.01
2023-03-16T16:16:19.468Z,7.89
2023-03-16T16:18:48.367Z,7.86
2023-03-16T16:21:24.548Z,7.73
2023-03-16T16:23:52.789Z,7.69
2023-03-16T16:26:50.005Z,7.52
2023-03-16T16:29:22.601Z,7.37
2023-03-16T16:31:51.655Z,7.19
2023-03-16T16:34:23.898Z,7.22
2023-03-16T16:36:51.370Z,7.18
2023-03-16T16:39:18.487Z,7.23
2023-03-16T16:41:46.161Z,7.07
2023-03-16T16:44:21.485Z,6.97
2023-03-16T16:46:50.358Z,6.89
2023-03-16T16:49:21.032Z,6.74
2023-03-16T16:51:48.148Z,6.67
2023-03-16T16:54:18.492Z,6.61
2023-03-16T16:56:46.776Z,6.58
2023-03-16T16:59:32.410Z,6.41
2023-03-16T17:02:03.250Z,6.46
2023-03-16T17:04:30.763Z,6.40
2023-03-16T17:07:01.881Z,6.28
2023-03-16T17:09:30.702Z,6.16
2023-03-16T17:12:01.069Z,6.15
2023-03-16T17:14:28.570Z,6.07
2023-03-16T17:16:59.814Z,5.99
2023-03-16T17:19:28.131Z,5.86
2023-03-16T17:21:57.431Z,5.77
2023-03-16T17:24:25.150Z,5.70
2023-03-16T17:26:55.331Z,5.60
2023-03-16T17:29:25.758Z,5.75
2023-03-16T17:31:53.163Z,5.88
2023-03-16T17:34:25.918Z,5.93
2023-03-16T17:36:57.631Z,5.92
2023-03-16T17:39:29.958Z,5.95
2023-03-16T17:42:19.162Z,5.80
2023-03-16T17:44:48.668Z,5.62
2023-03-16T17:47:17.288Z,5.44
2023-03-16T17:49:48.524Z,5.34
2023-03-16T17:52:18.843Z,5.32
2023-03-16T17:54:50.471Z,5.26
2023-03-16T17:57:22.187Z,5.10
2023-03-16T17:59:49.240Z,5.01
2023-03-16T18:02:50.118Z,5.03
2023-03-16T18:05:20.983Z,4.86
2023-03-16T18:07:48.699Z,4.83
2023-03-16T18:10:26.258Z,4.80
2023-03-16T18:12:58.513Z,4.71
2023-03-16T18:15:29.357Z,4.54
2023-03-16T18:17:58.432Z,4.49
2023-03-16T18:20:33.695Z,4.30
2023-03-16T18:23:09.350Z,4.22
2023-03-16T18:25:42.024Z,4.06
2023-03-16T18:28:11.316Z,4.11
2023-03-16T18:30:43.631Z,4.07
2023-03-16T18:33:23.710Z,3.93
2023-03-16T18:35:52.750Z,3.80
2023-03-16T18:38:39.273Z,3.73
2023-03-16T18:41:23.447Z,3.66
2023-03-16T18:43:53.879Z,3.63
2023-03-16T18:46:33.248Z,3.55
2023-03-16T18:49:09.921Z,3.53
2023-03-16T18:51:37.278Z,3.45
2023-03-16T18:54:20.449Z,3.39
2023-03-16T18:56:48.546Z,3.34
2023-03-16T18:59:17.201Z,3.29
2023-03-16T19:01:45.581Z,3.27
2023-03-16T19:04:23.855Z,3.31
2023-03-16T19:06:54.092Z,3.27
2023-03-16T19:09:27.737Z,3.29
2023-03-16T19:11:55.439Z,3.28
2023-03-16T19:14:34.156Z,3.22
2023-03-16T19:17:01.638Z,3.18
2023-03-16T19:19:28.964Z,3.12
2023-03-16T19:22:09.756Z,3.49
2023-03-16T19:24:48.744Z,3.69
2023-03-16T19:27:21.837Z,3.88
2023-03-16T19:29:52.139Z,3.94
2023-03-16T19:32:21.515Z,4.15
2023-03-16T19:34:49.086Z,4.19
2023-03-16T19:37:19.858Z,4.08
2023-03-16T19:39:47.159Z,4.16
2023-03-16T19:42:30.071Z,4.09
2023-03-16T19:44:57.155Z,4.00
2023-03-16T19:47:31.009Z,3.93
2023-03-16T19:49:59.049Z,3.84
2023-03-16T19:52:28.310Z,3.83
2023-03-16T19:54:55.375Z,3.86
2023-03-16T19:57:22.448Z,3.74
2023-03-16T19:59:55.455Z,3.60
2023-03-16T20:02:28.539Z,3.57
2023-03-16T20:04:56.786Z,3.44
2023-03-16T20:07:24.293Z,3.39
2023-03-16T20:09:51.509Z,3.28
2023-03-16T20:12:26.081Z,3.21
2023-03-16T20:14:53.423Z,3.18
2023-03-16T20:17:23.711Z,3.14
2023-03-16T20:19:51.619Z,3.16
2023-03-16T20:22:29.144Z,3.18
2023-03-16T20:24:58.047Z,3.12
2023-03-16T20:27:27.877Z,3.14
2023-03-16T20:29:55.042Z,3.17
2023-03-16T20:32:27.741Z,3.11
2023-03-16T20:34:54.863Z,3.13
2023-03-16T20:37:24.298Z,3.01
2023-03-16T20:39:54.178Z,2.94
2023-03-16T20:42:28.876Z,2.86
2023-03-16T20:44:56.541Z,2.74
2023-03-16T20:47:25.692Z,2.66
2023-03-16T20:49:55.125Z,2.60
2023-03-16T20:52:28.837Z,2.54
2023-03-16T20:54:58.056Z,2.58
2023-03-16T20:57:29.093Z,2.54
2023-03-16T20:59:56.561Z,2.52
2023-03-16T21:02:34.033Z,2.54
2023-03-16T21:05:04.134Z,2.52
2023-03-16T21:07:32.045Z,2.47
2023-03-16T21:09:59.183Z,2.43
2023-03-16T21:12:32.746Z,2.53
2023-03-16T21:15:02.543Z,2.46
2023-03-16T21:17:36.631Z,2.45
2023-03-16T21:20:15.856Z,2.35
2023-03-16T21:22:43.587Z,2.27
2023-03-16T21:25:23.676Z,2.25
2023-03-16T21:27:54.092Z,2.21
2023-03-16T21:30:32.469Z,2.12
2023-03-16T21:33:01.907Z,2.08
2023-03-16T21:35:35.414Z,2.07
2023-03-16T21:38:13.742Z,1.98
2023-03-16T21:40:41.311Z,1.91
2023-03-16T21:43:11.991Z,1.85
2023-03-16T21:45:40.078Z,1.82
2023-03-16T21:48:20.338Z,1.82
2023-03-16T21:50:49.090Z,1.75
2023-03-16T21:53:28.696Z,1.72
2023-03-16T21:55:57.133Z,1.63
2023-03-16T21:58:24.619Z,1.58
2023-03-16T22:00:53.642Z,1.49
2023-03-16T22:03:49.718Z,1.43
2023-03-16T22:06:17.942Z,1.41
2023-03-16T22:08:45.605Z,1.38
2023-03-16T22:11:18.761Z,1.39
2023-03-16T22:13:46.784Z,1.31
2023-03-16T22:16:20.602Z,1.23
2023-03-16T22:18:50.124Z,1.20
2023-03-16T22:21:40.923Z,1.22
2023-03-16T22:24:18.037Z,1.13
2023-03-16T22:26:49.085Z,1.02
2023-03-16T22:29:26.233Z,0.95
2023-03-16T22:31:57.902Z,0.92
2023-03-16T22:34:30.135Z,0.84
2023-03-16T22:36:58.201Z,0.74
2023-03-16T22:39:25.679Z,0.68
2023-03-16T22:41:52.817Z,0.64
2023-03-16T22:44:22.826Z,0.60
2023-03-16T22:46:51.053Z,0.59
2023-03-16T22:49:22.297Z,0.55
2023-03-16T22:51:51.781Z,0.55
2023-03-16T22:54:24.231Z,0.51
2023-03-16T22:56:51.602Z,0.50
2023-03-16T22:59:22.446Z,0.47
2023-03-16T23:01:50.448Z,0.43
2023-03-16T23:04:24.720Z,0.44
2023-03-16T23:06:53.752Z,0.36
2023-03-16T23:09:21.945Z,0.36
2023-03-16T23:11:54.405Z,0.33
2023-03-16T23:14:24.703Z,0.31
2023-03-16T23:16:52.684Z,0.36
2023-03-16T23:19:29.665Z,0.28
2023-03-16T23:22:01.844Z,0.26
2023-03-16T23:24:29.401Z,0.17
2023-03-16T23:26:57.225Z,0.14
2023-03-16T23:29:26.164Z,0.11
2023-03-16T23:31:54.560Z,0.10
2023-03-16T23:34:24.806Z,0.04
2023-03-16T23:36:52.592Z,-0.01
2023-03-16T23:39:19.907Z,0.00
2023-03-16T23:41:49.657Z,0.02
2023-03-16T23:44:23.368Z,0.00
2023-03-16T23:46:51.530Z,0.02
2023-03-16T23:49:28.851Z,0.01
2023-03-16T23:51:59.379Z,0.03
2023-03-16T23:54:29.743Z,0.12
2023-03-16T23:56:57.631Z,0.16
2023-03-16T23:59:26.588Z,0.05
